Strona główna
METAR-TAF:

METAR-TAF

Lotnisko :

Port lotniczy Sokoto

Sokoto, Nigeria

Szerokość geograficzna: 13-01N, Długość geograficzna: 005-15E, wysokość: 351 m

METAR: brakujący

czas: 15:14 (14:14 UTC)

Prognoza

Raport powstał 3 godziny i 14 minut temu, godzina 11:00 UTC
Prognoza ważna od 04 godzina 12 UTC do 05 godzina 18 UTC
Wiatr 10 kt od południowy zachód
Widzialność 10 km lub więcej
Przerywane chmury na wysokości 1200 ft
Stopniowe zmiany
od 04 godzina 14 UTC do 04 godzina 16 UTC
Widzialność 10 km lub więcej
Brak chmur poniżej 1500 m i brak chmur cumulonimbus

TAF: DNSO 041100Z 0412/0518 23010KT 9999 BKN012 BECMG 0414/0416 CAVOK

Obserwacja i prognoza pogody dla ponad 4000 lotnisk (raport METAR i TAF).

Dostępne stacje oznaczono żółtymi i czerwonymi punktami na mapie.

Najedź kursorem aby zobaczyć nazwę stacji.

Kliknij aby zobaczyć obserwacje i prognozy pogody.

Aby zmienić mapę: kliknij na zielony przycisk z czarnym krzyżykiem, aby powiększyć; na zielony przycisk z myślnikiem, aby pomniejszyć; na zielone strzałki, aby przejść do map sąsiednich.


METAR-TAF: